Time,TemperatureF,DewpointF,PressureIn,WindDirection,WindDirectionDegrees,WindSpeedMPH,WindSpeedGustMPH,Humidity,HourlyPrecipIn,Conditions,Clouds,dailyrainin,SoftwareType,DateUTC
2013-09-04 00:04:00,52.0,51.0,30.01,West,264,0.0,0.0,95,0.00,,,0.00,weatherlink.com 1.10,2013-09-04 05:04:00,
2013-09-04 00:10:00,51.6,50.0,30.01,West,264,0.0,0.0,94,0.00,,,0.00,weatherlink.com 1.10,2013-09-04 05:10:00,
2013-09-04 00:15:00,51.7,50.3,30.01,West,264,0.0,0.0,95,0.00,,,0.00,Wunderground v.1.15,2013-09-04 05:15:00,
2013-09-04 00:21:00,51.8,50.4,30.01,West,264,0.0,0.0,95,0.00,,,0.00,Wunderground v.1.15,2013-09-04 05:21:00,
2013-09-04 00:26:00,51.5,50.0,30.01,West,264,0.0,0.0,94,0.00,,,0.00,weatherlink.com 1.10,2013-09-04 05:26:00,
2013-09-04 00:32:00,51.2,49.8,30.01,West,264,0.0,0.0,95,0.00,,,0.00,Wunderground v.1.15,2013-09-04 05:32:00,
2013-09-04 00:37:00,51.1,49.7,30.01,West,264,0.0,0.0,95,0.00,,,0.00,Wunderground v.1.15,2013-09-04 05:37:00,
2013-09-04 00:43:00,51.2,49.8,30.01,West,264,0.0,0.0,95,0.00,,,0.00,Wunderground v.1.15,2013-09-04 05:43:00,
2013-09-04 00:48:00,51.1,49.7,30.01,West,264,0.0,0.0,95,0.00,,,0.00,Wunderground v.1.15,2013-09-04 05:48:00,
2013-09-04 00:54:00,51.0,49.6,30.01,West,264,0.0,0.0,95,0.00,,,0.00,Wunderground v.1.15,2013-09-04 05:54:00,
2013-09-04 00:59:00,50.8,49.4,30.01,West,264,0.0,0.0,95,0.00,,,0.00,Wunderground v.1.15,2013-09-04 05:59:00,
2013-09-04 01:05:00,51.0,49.6,30.01,West,264,0.0,0.0,95,0.00,,,0.00,Wunderground v.1.15,2013-09-04 06:05:00,
2013-09-04 01:10:00,51.0,49.6,30.01,West,264,0.0,0.0,95,0.00,,,0.00,Wunderground v.1.15,2013-09-04 06:10:00,
2013-09-04 01:16:00,51.1,50.0,30.01,West,264,0.0,0.0,96,0.00,,,0.00,Wunderground v.1.15,2013-09-04 06:16:00,
2013-09-04 01:21:00,51.4,50.3,30.01,West,264,0.0,0.0,96,0.00,,,0.00,Wunderground v.1.15,2013-09-04 06:21:00,
2013-09-04 01:27:00,51.4,50.3,30.01,West,264,0.0,0.0,96,0.00,,,0.00,Wunderground v.1.15,2013-09-04 06:27:00,
2013-09-04 01:32:00,51.4,50.3,30.01,West,264,0.0,0.0,96,0.00,,,0.00,Wunderground v.1.15,2013-09-04 06:32:00,
2013-09-04 01:38:00,51.5,50.4,30.01,West,264,0.0,0.0,96,0.00,,,0.00,Wunderground v.1.15,2013-09-04 06:38:00,
2013-09-04 01:43:00,51.7,50.6,30.01,West,264,0.0,0.0,96,0.00,,,0.00,Wunderground v.1.15,2013-09-04 06:43:00,
2013-09-04 01:49:00,51.3,49.9,30.01,West,264,0.0,0.0,95,0.00,,,0.00,Wunderground v.1.15,2013-09-04 06:49:00,
2013-09-04 01:55:00,50.9,49.5,30.01,West,264,0.0,0.0,95,0.00,,,0.00,Wunderground v.1.15,2013-09-04 06:55:00,
2013-09-04 02:00:00,50.8,49.4,30.01,West,264,0.0,0.0,95,0.00,,,0.00,Wunderground v.1.15,2013-09-04 07:00:00,
2013-09-04 02:05:00,50.8,49.7,30.01,West,264,0.0,0.0,96,0.00,,,0.00,Wunderground v.1.15,2013-09-04 07:05:00,
2013-09-04 02:10:00,50.8,49.7,30.01,West,264,0.0,0.0,96,0.00,,,0.00,Wunderground v.1.15,2013-09-04 07:10:00,
2013-09-04 02:15:00,50.9,49.8,30.02,West,264,0.0,0.0,96,0.00,,,0.00,Wunderground v.1.15,2013-09-04 07:15:00,
2013-09-04 02:20:00,51.2,50.1,30.02,West,264,0.0,0.0,96,0.00,,,0.00,Wunderground v.1.15,2013-09-04 07:20:00,
2013-09-04 02:25:00,51.0,49.9,30.02,West,264,0.0,0.0,96,0.00,,,0.00,Wunderground v.1.15,2013-09-04 07:25:00,
2013-09-04 02:30:00,50.9,49.8,30.02,West,264,0.0,0.0,96,0.00,,,0.00,Wunderground v.1.15,2013-09-04 07:30:00,
2013-09-04 02:35:00,51.1,50.0,30.02,West,264,0.0,0.0,96,0.00,,,0.00,Wunderground v.1.15,2013-09-04 07:35:00,
2013-09-04 02:40:00,51.4,50.3,30.02,West,264,0.0,0.0,96,0.00,,,0.00,Wunderground v.1.15,2013-09-04 07:40:00,
2013-09-04 02:45:00,51.7,50.6,30.02,West,264,0.0,0.0,96,0.00,,,0.00,Wunderground v.1.15,2013-09-04 07:45:00,
2013-09-04 02:50:00,52.3,51.5,30.02,West,264,0.0,0.0,97,0.00,,,0.00,Wunderground v.1.15,2013-09-04 07:50:00,
2013-09-04 02:55:00,52.5,51.7,30.02,West,264,0.0,0.0,97,0.00,,,0.00,Wunderground v.1.15,2013-09-04 07:55:00,
2013-09-04 03:00:00,52.5,51.4,30.02,West,264,0.0,0.0,96,0.00,,,0.00,Wunderground v.1.15,2013-09-04 08:00:00,
2013-09-04 03:05:00,52.4,51.3,30.02,West,264,0.0,0.0,96,0.00,,,0.00,Wunderground v.1.15,2013-09-04 08:05:00,
2013-09-04 03:10:00,52.2,51.1,30.02,West,264,0.0,0.0,96,0.00,,,0.00,Wunderground v.1.15,2013-09-04 08:10:00,
2013-09-04 03:15:00,52.2,51.1,30.02,West,264,0.0,0.0,96,0.00,,,0.00,Wunderground v.1.15,2013-09-04 08:15:00,
2013-09-04 03:20:00,51.9,50.8,30.03,West,264,0.0,0.0,96,0.00,,,0.00,Wunderground v.1.15,2013-09-04 08:20:00,
2013-09-04 03:25:00,51.8,50.7,30.03,West,264,0.0,0.0,96,0.00,,,0.00,Wunderground v.1.15,2013-09-04 08:25:00,
2013-09-04 03:30:00,51.7,50.6,30.03,West,264,0.0,0.0,96,0.00,,,0.00,Wunderground v.1.15,2013-09-04 08:30:00,
2013-09-04 03:35:00,51.7,50.6,30.03,West,264,0.0,0.0,96,0.00,,,0.00,Wunderground v.1.15,2013-09-04 08:35:00,
2013-09-04 03:41:00,51.9,50.8,30.03,West,264,0.0,0.0,96,0.00,,,0.00,Wunderground v.1.15,2013-09-04 08:41:00,
2013-09-04 03:46:00,51.7,50.6,30.03,West,264,0.0,0.0,96,0.00,,,0.00,Wunderground v.1.15,2013-09-04 08:46:00,
2013-09-04 03:51:00,51.5,50.4,30.03,West,264,0.0,0.0,96,0.00,,,0.00,Wunderground v.1.15,2013-09-04 08:51:00,
2013-09-04 03:56:00,51.4,50.3,30.03,West,264,0.0,0.0,96,0.00,,,0.00,Wunderground v.1.15,2013-09-04 08:56:00,
2013-09-04 04:01:00,51.7,50.6,30.03,West,264,0.0,0.0,96,0.00,,,0.00,Wunderground v.1.15,2013-09-04 09:01:00,
2013-09-04 04:06:00,51.8,50.7,30.03,West,264,0.0,0.0,96,0.00,,,0.00,Wunderground v.1.15,2013-09-04 09:06:00,
2013-09-04 04:11:00,51.9,50.8,30.03,West,264,0.0,0.0,96,0.00,,,0.00,Wunderground v.1.15,2013-09-04 09:11:00,
2013-09-04 04:16:00,51.9,50.8,30.04,West,264,0.0,0.0,96,0.00,,,0.00,Wunderground v.1.15,2013-09-04 09:16:00,
2013-09-04 04:21:00,51.7,50.6,30.04,West,264,0.0,0.0,96,0.00,,,0.00,Wunderground v.1.15,2013-09-04 09:21:00,
2013-09-04 04:26:00,52.0,50.9,30.04,West,264,0.0,0.0,96,0.00,,,0.00,Wunderground v.1.15,2013-09-04 09:26:00,
2013-09-04 04:31:00,51.9,50.8,30.04,West,264,0.0,0.0,96,0.00,,,0.00,Wunderground v.1.15,2013-09-04 09:31:00,
2013-09-04 04:36:00,51.7,50.6,30.04,West,264,0.0,0.0,96,0.00,,,0.00,Wunderground v.1.15,2013-09-04 09:36:00,
2013-09-04 04:41:00,51.6,50.5,30.04,West,264,0.0,0.0,96,0.00,,,0.00,Wunderground v.1.15,2013-09-04 09:41:00,
2013-09-04 04:46:00,51.2,50.1,30.04,West,264,0.0,0.0,96,0.00,,,0.00,Wunderground v.1.15,2013-09-04 09:46:00,
2013-09-04 04:51:00,51.1,50.0,30.04,West,264,0.0,0.0,96,0.00,,,0.00,Wunderground v.1.15,2013-09-04 09:51:00,
2013-09-04 04:56:00,51.2,50.1,30.04,West,264,0.0,0.0,96,0.00,,,0.00,Wunderground v.1.15,2013-09-04 09:56:00,
2013-09-04 05:01:00,51.3,50.2,30.04,West,264,0.0,0.0,96,0.00,,,0.00,Wunderground v.1.15,2013-09-04 10:01:00,
2013-09-04 05:06:00,51.4,50.3,30.04,West,264,0.0,0.0,96,0.00,,,0.00,Wunderground v.1.15,2013-09-04 10:06:00,
2013-09-04 05:11:00,51.0,49.9,30.04,West,264,0.0,0.0,96,0.00,,,0.00,Wunderground v.1.15,2013-09-04 10:11:00,
2013-09-04 05:16:00,50.8,49.7,30.05,West,264,0.0,0.0,96,0.00,,,0.00,Wunderground v.1.15,2013-09-04 10:16:00,
2013-09-04 05:21:00,50.2,48.8,30.05,West,264,0.0,0.0,95,0.00,,,0.00,Wunderground v.1.15,2013-09-04 10:21:00,
2013-09-04 05:26:00,50.5,49.4,30.05,West,264,0.0,0.0,96,0.00,,,0.00,Wunderground v.1.15,2013-09-04 10:26:00,
2013-09-04 05:31:00,50.3,49.2,30.04,West,264,0.0,0.0,96,0.00,,,0.00,Wunderground v.1.15,2013-09-04 10:31:00,
2013-09-04 05:36:00,50.7,49.6,30.05,West,264,0.0,0.0,96,0.00,,,0.00,Wunderground v.1.15,2013-09-04 10:36:00,
2013-09-04 05:41:00,51.0,50.2,30.05,West,264,0.0,0.0,97,0.00,,,0.00,Wunderground v.1.15,2013-09-04 10:41:00,
2013-09-04 05:46:00,51.1,50.3,30.05,West,264,0.0,0.0,97,0.00,,,0.00,Wunderground v.1.15,2013-09-04 10:46:00,
2013-09-04 05:51:00,51.2,50.4,30.05,West,264,0.0,0.0,97,0.00,,,0.00,Wunderground v.1.15,2013-09-04 10:51:00,
2013-09-04 05:56:00,51.4,50.6,30.05,West,264,0.0,0.0,97,0.00,,,0.00,Wunderground v.1.15,2013-09-04 10:56:00,
2013-09-04 06:01:00,51.6,50.8,30.05,West,264,0.0,0.0,97,0.00,,,0.00,Wunderground v.1.15,2013-09-04 11:01:00,
2013-09-04 06:06:00,51.4,50.3,30.05,West,264,0.0,0.0,96,0.00,,,0.00,Wunderground v.1.15,2013-09-04 11:06:00,
2013-09-04 06:11:00,51.3,50.2,30.05,West,264,0.0,0.0,96,0.00,,,0.00,Wunderground v.1.15,2013-09-04 11:11:00,
2013-09-04 06:16:00,51.5,50.4,30.06,West,264,0.0,0.0,96,0.00,,,0.00,Wunderground v.1.15,2013-09-04 11:16:00,
2013-09-04 06:21:00,51.6,50.5,30.06,West,264,0.0,0.0,96,0.00,,,0.00,Wunderground v.1.15,2013-09-04 11:21:00,
2013-09-04 06:26:00,52.3,51.5,30.07,West,267,0.0,0.0,97,0.00,,,0.00,Wunderground v.1.15,2013-09-04 11:26:00,
2013-09-04 06:31:00,51.5,50.4,30.07,West,267,0.0,0.0,96,0.00,,,0.00,Wunderground v.1.15,2013-09-04 11:31:00,
2013-09-04 06:36:00,51.2,50.1,30.06,West,267,0.0,0.0,96,0.00,,,0.00,Wunderground v.1.15,2013-09-04 11:36:00,
2013-09-04 06:41:00,51.5,50.4,30.07,West,267,0.0,0.0,96,0.00,,,0.00,Wunderground v.1.15,2013-09-04 11:41:00,
2013-09-04 06:46:00,51.4,50.3,30.07,West,267,0.0,0.0,96,0.00,,,0.00,Wunderground v.1.15,2013-09-04 11:46:00,
2013-09-04 06:51:00,51.3,50.2,30.07,West,266,0.0,0.0,96,0.00,,,0.00,Wunderground v.1.15,2013-09-04 11:51:00,
2013-09-04 06:56:00,51.9,50.8,30.06,West,267,0.0,0.0,96,0.00,,,0.00,Wunderground v.1.15,2013-09-04 11:56:00,
2013-09-04 07:01:00,53.1,52.3,30.06,West,267,0.0,0.0,97,0.00,,,0.00,Wunderground v.1.15,2013-09-04 12:01:00,
2013-09-04 07:06:00,53.7,52.9,30.07,West,267,0.0,0.0,97,0.00,,,0.00,Wunderground v.1.15,2013-09-04 12:06:00,
2013-09-04 07:11:00,54.2,53.4,30.06,West,267,0.0,0.0,97,0.00,,,0.00,Wunderground v.1.15,2013-09-04 12:11:00,
2013-09-04 07:16:00,54.9,53.8,30.07,West,259,0.0,0.0,96,0.00,,,0.00,Wunderground v.1.15,2013-09-04 12:16:00,
2013-09-04 07:21:00,55.7,54.9,30.07,West,271,1.0,2.0,97,0.00,,,0.00,Wunderground v.1.15,2013-09-04 12:21:00,
2013-09-04 07:26:00,56.3,55.2,30.07,West,262,1.0,2.0,96,0.00,,,0.00,Wunderground v.1.15,2013-09-04 12:26:00,
2013-09-04 07:31:00,56.9,55.8,30.07,WSW,257,1.0,2.0,96,0.00,,,0.00,Wunderground v.1.15,2013-09-04 12:31:00,
2013-09-04 07:36:00,57.4,56.3,30.07,West,269,1.0,3.0,96,0.00,,,0.00,Wunderground v.1.15,2013-09-04 12:36:00,
2013-09-04 07:41:00,58.0,56.9,30.07,West,263,0.0,3.0,96,0.00,,,0.00,Wunderground v.1.15,2013-09-04 12:41:00,
2013-09-04 07:46:00,58.6,57.2,30.07,West,263,2.0,3.0,95,0.00,,,0.00,Wunderground v.1.15,2013-09-04 12:46:00,
2013-09-04 07:51:00,59.1,57.7,30.07,WSW,246,3.0,5.0,95,0.00,,,0.00,Wunderground v.1.15,2013-09-04 12:51:00,
2013-09-04 07:56:00,59.6,57.6,30.07,WSW,238,3.0,5.0,93,0.00,,,0.00,Wunderground v.1.15,2013-09-04 12:56:00,
2013-09-04 08:01:00,60.1,57.8,30.07,SW,236,2.0,4.0,92,0.00,,,0.00,Wunderground v.1.15,2013-09-04 13:01:00,
2013-09-04 08:06:00,60.7,58.1,30.07,WSW,248,4.0,5.0,91,0.00,,,0.00,Wunderground v.1.15,2013-09-04 13:06:00,
2013-09-04 08:11:00,61.2,57.9,30.07,West,278,2.0,4.0,89,0.00,,,0.00,Wunderground v.1.15,2013-09-04 13:11:00,
2013-09-04 08:16:00,61.8,58.5,30.07,West,262,3.0,4.0,89,0.00,,,0.00,Wunderground v.1.15,2013-09-04 13:16:00,
2013-09-04 08:21:00,62.3,58.7,30.07,WSW,245,3.0,4.0,88,0.00,,,0.00,Wunderground v.1.15,2013-09-04 13:21:00,
2013-09-04 08:26:00,62.8,58.9,30.07,WSW,255,3.0,4.0,87,0.00,,,0.00,Wunderground v.1.15,2013-09-04 13:26:00,
2013-09-04 08:31:00,63.3,59.0,30.07,West,267,2.0,4.0,86,0.00,,,0.00,Wunderground v.1.15,2013-09-04 13:31:00,
2013-09-04 08:36:00,63.7,59.1,30.07,WSW,248,3.0,4.0,85,0.00,,,0.00,Wunderground v.1.15,2013-09-04 13:36:00,
2013-09-04 08:41:00,64.2,59.3,30.07,WSW,255,3.0,4.0,84,0.00,,,0.00,Wunderground v.1.15,2013-09-04 13:41:00,
2013-09-04 08:46:00,64.5,59.2,30.07,West,266,3.0,5.0,83,0.00,,,0.00,Wunderground v.1.15,2013-09-04 13:46:00,
2013-09-04 08:51:00,64.8,58.8,30.07,West,270,2.0,5.0,81,0.00,,,0.00,Wunderground v.1.15,2013-09-04 13:51:00,
2013-09-04 08:56:00,65.2,59.2,30.07,West,266,5.0,5.0,81,0.00,,,0.00,Wunderground v.1.15,2013-09-04 13:56:00,
2013-09-04 09:01:00,65.6,58.9,30.07,West,259,5.0,9.0,79,0.00,,,0.00,Wunderground v.1.15,2013-09-04 14:01:00,
2013-09-04 09:06:00,65.7,58.7,30.07,West,264,5.0,9.0,78,0.00,,,0.00,Wunderground v.1.15,2013-09-04 14:06:00,
2013-09-04 09:11:00,66.1,59.0,30.07,West,270,6.0,8.0,78,0.00,,,0.00,Wunderground v.1.15,2013-09-04 14:11:00,
2013-09-04 09:16:00,66.5,59.1,30.07,West,270,4.0,12.0,77,0.00,,,0.00,Wunderground v.1.15,2013-09-04 14:16:00,
2013-09-04 09:21:00,66.9,59.8,30.07,WNW,293,6.0,6.0,78,0.00,,,0.00,Wunderground v.1.15,2013-09-04 14:21:00,
2013-09-04 09:26:00,67.6,59.8,30.07,West,269,6.0,7.0,76,0.00,,,0.00,Wunderground v.1.15,2013-09-04 14:26:00,
2013-09-04 09:31:00,68.2,59.6,30.07,NW,312,6.0,9.0,74,0.00,,,0.00,Wunderground v.1.15,2013-09-04 14:31:00,
2013-09-04 09:36:00,68.6,60.0,30.07,WSW,257,6.0,9.0,74,0.00,,,0.00,Wunderground v.1.15,2013-09-04 14:36:00,
2013-09-04 09:41:00,68.8,59.8,30.07,West,264,5.0,8.0,73,0.00,,,0.00,Wunderground v.1.15,2013-09-04 14:41:00,
2013-09-04 09:46:00,69.2,60.6,30.07,West,260,4.0,9.0,74,0.00,,,0.00,Wunderground v.1.15,2013-09-04 14:46:00,
2013-09-04 09:51:00,69.6,60.6,30.07,West,264,6.0,8.0,73,0.00,,,0.00,Wunderground v.1.15,2013-09-04 14:51:00,
2013-09-04 09:56:00,70.0,60.2,30.07,West,271,7.0,10.0,71,0.00,,,0.00,Wunderground v.1.15,2013-09-04 14:56:00,
2013-09-04 10:01:00,69.9,60.1,30.07,WSW,258,10.0,10.0,71,0.00,,,0.00,Wunderground v.1.15,2013-09-04 15:01:00,
2013-09-04 10:06:00,70.2,60.7,30.07,WNW,285,6.0,10.0,72,0.00,,,0.00,Wunderground v.1.15,2013-09-04 15:06:00,
2013-09-04 10:11:00,70.8,60.5,30.06,West,273,9.0,10.0,70,0.00,,,0.00,Wunderground v.1.15,2013-09-04 15:11:00,
2013-09-04 10:16:00,71.0,60.7,30.06,WSW,256,7.0,10.0,70,0.00,,,0.00,Wunderground v.1.15,2013-09-04 15:16:00,
2013-09-04 10:21:00,71.6,62.5,30.06,West,266,6.0,8.0,73,0.00,,,0.00,Wunderground v.1.15,2013-09-04 15:21:00,
2013-09-04 10:26:00,71.6,60.9,30.06,WSW,249,9.0,10.0,69,0.00,,,0.00,Wunderground v.1.15,2013-09-04 15:26:00,
2013-09-04 10:31:00,71.8,61.9,30.07,West,263,4.0,8.0,71,0.00,,,0.00,Wunderground v.1.15,2013-09-04 15:31:00,
2013-09-04 10:36:00,72.2,61.5,30.07,West,271,6.0,10.0,69,0.00,,,0.00,Wunderground v.1.15,2013-09-04 15:36:00,
2013-09-04 10:41:00,72.6,61.4,30.06,WNW,283,6.0,9.0,68,0.00,,,0.00,Wunderground v.1.15,2013-09-04 15:41:00,
2013-09-04 10:46:00,72.6,61.4,30.06,WSW,245,7.0,9.0,68,0.00,,,0.00,Wunderground v.1.15,2013-09-04 15:46:00,
2013-09-04 10:51:00,72.9,61.7,30.07,West,264,8.0,10.0,68,0.00,,,0.00,Wunderground v.1.15,2013-09-04 15:51:00,
2013-09-04 10:56:00,73.1,61.5,30.07,WSW,258,7.0,10.0,67,0.00,,,0.00,Wunderground v.1.15,2013-09-04 15:56:00,
2013-09-04 11:01:00,73.4,61.8,30.07,WSW,249,7.0,9.0,67,0.00,,,0.00,Wunderground v.1.15,2013-09-04 16:01:00,
2013-09-04 11:06:00,73.5,61.9,30.07,West,262,8.0,9.0,67,0.00,,,0.00,Wunderground v.1.15,2013-09-04 16:06:00,
2013-09-04 11:11:00,73.9,62.2,30.07,WSW,252,7.0,9.0,67,0.00,,,0.00,Wunderground v.1.15,2013-09-04 16:11:00,
2013-09-04 11:16:00,73.7,61.6,30.07,SW,236,6.0,10.0,66,0.00,,,0.00,Wunderground v.1.15,2013-09-04 16:16:00,
2013-09-04 11:21:00,74.2,62.1,30.08,WSW,255,8.0,9.0,66,0.00,,,0.00,Wunderground v.1.15,2013-09-04 16:21:00,
2013-09-04 11:26:00,74.2,62.5,30.08,West,269,5.0,10.0,67,0.00,,,0.00,Wunderground v.1.15,2013-09-04 16:26:00,
2013-09-04 11:32:00,74.4,62.7,30.08,West,271,5.0,8.0,67,0.00,,,0.00,Wunderground v.1.15,2013-09-04 16:32:00,
2013-09-04 11:37:00,75.0,62.4,30.07,WSW,253,5.0,9.0,65,0.00,,,0.00,Wunderground v.1.15,2013-09-04 16:37:00,
2013-09-04 11:42:00,74.9,62.8,30.08,West,270,7.0,10.0,66,0.00,,,0.00,Wunderground v.1.15,2013-09-04 16:42:00,
2013-09-04 11:47:00,75.0,62.0,30.07,West,269,8.0,10.0,64,0.00,,,0.00,Wunderground v.1.15,2013-09-04 16:47:00,
2013-09-04 11:52:00,75.0,62.9,30.08,WSW,256,2.0,10.0,66,0.00,,,0.00,Wunderground v.1.15,2013-09-04 16:52:00,
2013-09-04 11:56:00,75.0,62.9,30.07,WNW,294,7.0,10.0,66,0.00,,,0.00,Wunderground v.1.15,2013-09-04 16:56:00,
2013-09-04 12:02:00,75.3,62.7,30.07,West,266,6.0,7.0,65,0.00,,,0.00,Wunderground v.1.15,2013-09-04 17:02:00,
2013-09-04 12:07:00,75.8,64.1,30.07,West,267,6.0,8.0,67,0.00,,,0.00,Wunderground v.1.15,2013-09-04 17:07:00,
2013-09-04 12:12:00,75.9,62.8,30.07,West,276,8.0,10.0,64,0.00,,,0.00,Wunderground v.1.15,2013-09-04 17:12:00,
2013-09-04 12:17:00,75.7,63.1,30.07,WNW,291,6.0,11.0,65,0.00,,,0.00,Wunderground v.1.15,2013-09-04 17:17:00,
2013-09-04 12:22:00,76.3,63.7,30.07,WNW,293,7.0,9.0,65,0.00,,,0.00,Wunderground v.1.15,2013-09-04 17:22:00,
2013-09-04 12:27:00,77.2,63.6,30.07,WNW,293,2.0,9.0,63,0.00,,,0.00,Wunderground v.1.15,2013-09-04 17:27:00,
2013-09-04 12:32:00,77.4,63.4,30.07,WSW,257,9.0,9.0,62,0.00,,,0.00,Wunderground v.1.15,2013-09-04 17:32:00,
2013-09-04 12:37:00,76.8,63.2,30.07,SW,229,5.0,12.0,63,0.00,,,0.00,Wunderground v.1.15,2013-09-04 17:37:00,
2013-09-04 12:42:00,76.5,63.4,30.07,West,266,2.0,6.0,64,0.00,,,0.00,Wunderground v.1.15,2013-09-04 17:42:00,
2013-09-04 12:47:00,76.7,63.6,30.07,West,273,4.0,10.0,64,0.00,,,0.00,Wunderground v.1.15,2013-09-04 17:47:00,
2013-09-04 12:52:00,77.3,63.7,30.08,West,260,6.0,8.0,63,0.00,,,0.00,Wunderground v.1.15,2013-09-04 17:52:00,
2013-09-04 12:57:00,76.9,63.3,30.08,WSW,257,6.0,11.0,63,0.00,,,0.00,Wunderground v.1.15,2013-09-04 17:57:00,
2013-09-04 13:02:00,76.7,63.2,30.08,West,264,5.0,8.0,63,0.00,,,0.00,Wunderground v.1.15,2013-09-04 18:02:00,
2013-09-04 13:07:00,76.8,62.8,30.07,WNW,302,5.0,8.0,62,0.00,,,0.00,Wunderground v.1.15,2013-09-04 18:07:00,
2013-09-04 13:12:00,76.9,63.8,30.07,NW,322,3.0,6.0,64,0.00,,,0.00,Wunderground v.1.15,2013-09-04 18:12:00,
2013-09-04 13:17:00,77.2,63.6,30.08,West,264,3.0,9.0,63,0.00,,,0.00,Wunderground v.1.15,2013-09-04 18:17:00,
2013-09-04 13:22:00,76.9,63.8,30.08,WSW,252,3.0,8.0,64,0.00,,,0.00,Wunderground v.1.15,2013-09-04 18:22:00,
2013-09-04 13:27:00,77.1,64.4,30.08,ESE,106,2.0,9.0,65,0.00,,,0.00,Wunderground v.1.15,2013-09-04 18:27:00,
2013-09-04 13:32:00,77.7,64.5,30.08,WNW,302,3.0,5.0,64,0.00,,,0.00,Wunderground v.1.15,2013-09-04 18:32:00,
2013-09-04 13:37:00,78.0,64.4,30.07,West,266,4.0,7.0,63,0.00,,,0.00,Wunderground v.1.15,2013-09-04 18:37:00,
2013-09-04 13:42:00,78.1,64.5,30.07,West,269,4.0,8.0,63,0.00,,,0.00,Wunderground v.1.15,2013-09-04 18:42:00,
2013-09-04 13:47:00,77.7,64.5,30.07,WSW,250,5.0,8.0,64,0.00,,,0.00,Wunderground v.1.15,2013-09-04 18:47:00,
2013-09-04 13:52:00,77.7,65.0,30.07,WSW,249,3.0,5.0,65,0.00,,,0.00,Wunderground v.1.15,2013-09-04 18:52:00,
2013-09-04 13:57:00,78.1,64.9,30.07,West,262,6.0,8.0,64,0.00,,,0.00,Wunderground v.1.15,2013-09-04 18:57:00,
2013-09-04 14:02:00,77.9,64.7,30.07,WNW,293,3.0,5.0,64,0.00,,,0.00,Wunderground v.1.15,2013-09-04 19:02:00,
2013-09-04 14:07:00,77.9,65.2,30.07,West,278,4.0,7.0,65,0.00,,,0.00,Wunderground v.1.15,2013-09-04 19:07:00,
2013-09-04 14:12:00,77.6,64.5,30.06,WNW,288,4.0,6.0,64,0.00,,,0.00,Wunderground v.1.15,2013-09-04 19:12:00,
2013-09-04 14:17:00,77.4,64.7,30.06,West,260,4.0,8.0,65,0.00,,,0.00,Wunderground v.1.15,2013-09-04 19:17:00,
2013-09-04 14:22:00,77.6,65.3,30.06,WNW,297,4.0,6.0,66,0.00,,,0.00,Wunderground v.1.15,2013-09-04 19:22:00,
2013-09-04 14:27:00,78.0,65.3,30.06,SW,226,7.0,7.0,65,0.00,,,0.00,Wunderground v.1.15,2013-09-04 19:27:00,
2013-09-04 14:32:00,78.2,64.6,30.06,WSW,242,3.0,7.0,63,0.00,,,0.00,Wunderground v.1.15,2013-09-04 19:32:00,
2013-09-04 14:37:00,78.1,64.0,30.06,NW,309,3.0,7.0,62,0.00,,,0.00,Wunderground v.1.15,2013-09-04 19:37:00,
2013-09-04 14:42:00,78.1,63.1,30.06,WSW,252,1.0,4.0,60,0.00,,,0.00,Wunderground v.1.15,2013-09-04 19:42:00,
2013-09-04 14:47:00,78.3,64.7,30.06,WSW,257,5.0,6.0,63,0.00,,,0.00,Wunderground v.1.15,2013-09-04 19:47:00,
2013-09-04 14:52:00,78.3,64.2,30.06,WNW,287,2.0,7.0,62,0.00,,,0.00,Wunderground v.1.15,2013-09-04 19:52:00,
2013-09-04 14:57:00,78.8,65.6,30.06,SW,223,8.0,10.0,64,0.00,,,0.00,Wunderground v.1.15,2013-09-04 19:57:00,
2013-09-04 15:02:00,79.0,64.9,30.05,SW,226,4.0,10.0,62,0.00,,,0.00,Wunderground v.1.15,2013-09-04 20:02:00,
2013-09-04 15:07:00,78.9,64.8,30.05,SW,225,5.0,10.0,62,0.00,,,0.00,Wunderground v.1.15,2013-09-04 20:07:00,
2013-09-04 15:12:00,78.7,65.0,30.05,WNW,283,5.0,6.0,63,0.00,,,0.00,Wunderground v.1.15,2013-09-04 20:12:00,
2013-09-04 15:17:00,78.8,64.7,30.05,WSW,248,4.0,8.0,62,0.00,,,0.00,Wunderground v.1.15,2013-09-04 20:17:00,
2013-09-04 15:22:00,78.5,64.9,30.05,SW,233,7.0,7.0,63,0.00,,,0.00,Wunderground v.1.15,2013-09-04 20:22:00,
2013-09-04 15:27:00,78.7,65.9,30.05,SW,232,3.0,7.0,65,0.00,,,0.00,Wunderground v.1.15,2013-09-04 20:27:00,
2013-09-04 15:32:00,79.2,65.5,30.05,WSW,253,8.0,9.0,63,0.00,,,0.00,Wunderground v.1.15,2013-09-04 20:32:00,
2013-09-04 15:37:00,79.3,66.1,30.05,WSW,246,8.0,9.0,64,0.00,,,0.00,Wunderground v.1.15,2013-09-04 20:37:00,
2013-09-04 15:42:00,79.3,65.6,30.05,West,267,5.0,7.0,63,0.00,,,0.00,Wunderground v.1.15,2013-09-04 20:42:00,
2013-09-04 15:47:00,79.2,66.0,30.05,West,278,7.0,8.0,64,0.00,,,0.00,Wunderground v.1.15,2013-09-04 20:47:00,
2013-09-04 15:52:00,79.4,65.7,30.05,WSW,242,6.0,8.0,63,0.00,,,0.00,Wunderground v.1.15,2013-09-04 20:52:00,
2013-09-04 15:57:00,79.4,65.7,30.05,WSW,253,5.0,8.0,63,0.00,,,0.00,Wunderground v.1.15,2013-09-04 20:57:00,
2013-09-04 16:02:00,79.2,65.1,30.05,SW,224,2.0,7.0,62,0.00,,,0.00,Wunderground v.1.15,2013-09-04 21:02:00,
2013-09-04 16:07:00,79.4,65.2,30.05,WSW,258,3.0,8.0,62,0.00,,,0.00,Wunderground v.1.15,2013-09-04 21:07:00,
2013-09-04 16:12:00,79.1,65.4,30.05,WSW,249,4.0,6.0,63,0.00,,,0.00,Wunderground v.1.15,2013-09-04 21:12:00,
2013-09-04 16:17:00,79.2,65.5,30.05,West,278,3.0,6.0,63,0.00,,,0.00,Wunderground v.1.15,2013-09-04 21:17:00,
2013-09-04 16:22:00,79.4,65.2,30.05,West,270,4.0,9.0,62,0.00,,,0.00,Wunderground v.1.15,2013-09-04 21:22:00,
2013-09-04 16:27:00,79.6,65.0,30.05,West,266,4.0,9.0,61,0.00,,,0.00,Wunderground v.1.15,2013-09-04 21:27:00,
2013-09-04 16:32:00,79.9,65.2,30.05,WSW,258,5.0,9.0,61,0.00,,,0.00,Wunderground v.1.15,2013-09-04 21:32:00,
2013-09-04 16:37:00,79.9,64.3,30.04,WSW,242,4.0,9.0,59,0.00,,,0.00,Wunderground v.1.15,2013-09-04 21:37:00,
2013-09-04 16:42:00,79.6,64.5,30.04,WSW,248,3.0,7.0,60,0.00,,,0.00,Wunderground v.1.15,2013-09-04 21:42:00,
2013-09-04 16:47:00,79.5,64.4,30.04,West,262,3.0,7.0,60,0.00,,,0.00,Wunderground v.1.15,2013-09-04 21:47:00,
2013-09-04 16:52:00,79.7,65.1,30.04,WSW,256,3.0,5.0,61,0.00,,,0.00,Wunderground v.1.15,2013-09-04 21:52:00,
2013-09-04 16:57:00,79.6,65.0,30.04,West,259,3.0,5.0,61,0.00,,,0.00,Wunderground v.1.15,2013-09-04 21:57:00,
2013-09-04 17:02:00,79.5,64.9,30.04,West,271,2.0,4.0,61,0.00,,,0.00,Wunderground v.1.15,2013-09-04 22:02:00,
2013-09-04 17:07:00,79.9,65.7,30.04,WSW,245,2.0,4.0,62,0.00,,,0.00,Wunderground v.1.15,2013-09-04 22:07:00,
2013-09-04 17:12:00,80.2,65.1,30.04,SSW,204,3.0,6.0,60,0.00,,,0.00,Wunderground v.1.15,2013-09-04 22:12:00,
2013-09-04 17:17:00,80.0,64.4,30.04,WSW,245,6.0,7.0,59,0.00,,,0.00,Wunderground v.1.15,2013-09-04 22:17:00,
2013-09-04 17:22:00,79.7,64.1,30.04,West,264,4.0,6.0,59,0.00,,,0.00,Wunderground v.1.15,2013-09-04 22:22:00,
2013-09-04 17:27:00,79.7,65.1,30.04,West,259,2.0,7.0,61,0.00,,,0.00,Wunderground v.1.15,2013-09-04 22:27:00,
2013-09-04 17:32:00,79.7,64.6,30.03,WSW,238,3.0,5.0,60,0.00,,,0.00,Wunderground v.1.15,2013-09-04 22:32:00,
2013-09-04 17:37:00,79.4,64.8,30.04,West,263,4.0,5.0,61,0.00,,,0.00,Wunderground v.1.15,2013-09-04 22:37:00,
2013-09-04 17:42:00,78.9,63.8,30.03,West,281,2.0,7.0,60,0.00,,,0.00,Wunderground v.1.15,2013-09-04 22:42:00,
2013-09-04 17:47:00,78.5,64.9,30.04,SSW,194,1.0,7.0,63,0.00,,,0.00,Wunderground v.1.15,2013-09-04 22:47:00,
2013-09-04 17:52:00,78.4,64.3,30.04,West,267,1.0,3.0,62,0.00,,,0.00,Wunderground v.1.15,2013-09-04 22:52:00,
2013-09-04 17:57:00,78.5,64.4,30.04,West,260,1.0,3.0,62,0.00,,,0.00,Wunderground v.1.15,2013-09-04 22:57:00,
2013-09-04 18:02:00,78.8,64.7,30.04,West,274,2.0,2.0,62,0.00,,,0.00,Wunderground v.1.15,2013-09-04 23:02:00,
2013-09-04 18:07:00,78.8,64.2,30.04,West,267,0.0,2.0,61,0.00,,,0.00,Wunderground v.1.15,2013-09-04 23:07:00,
2013-09-04 18:12:00,77.8,65.5,30.05,ENE,59,3.0,11.0,66,0.00,,,0.00,Wunderground v.1.15,2013-09-04 23:12:00,
2013-09-04 18:17:00,75.2,65.1,30.05,ENE,74,9.0,11.0,71,0.00,,,0.00,Wunderground v.1.15,2013-09-04 23:17:00,
2013-09-04 18:22:00,73.5,64.7,30.05,ESE,110,5.0,6.0,74,0.00,,,0.00,Wunderground v.1.15,2013-09-04 23:22:00,
2013-09-04 18:27:00,72.2,64.2,30.05,ENE,70,3.0,9.0,76,0.00,,,0.00,Wunderground v.1.15,2013-09-04 23:27:00,
2013-09-04 18:32:00,71.3,64.1,30.05,NE,56,4.0,11.0,78,0.00,,,0.00,Wunderground v.1.15,2013-09-04 23:32:00,
2013-09-04 18:37:00,70.8,64.0,30.05,ENE,77,6.0,11.0,79,0.00,,,0.00,Wunderground v.1.15,2013-09-04 23:37:00,
2013-09-04 18:42:00,70.4,64.3,30.06,NNE,14,2.0,7.0,81,0.00,,,0.00,Wunderground v.1.15,2013-09-04 23:42:00,
2013-09-04 18:47:00,70.0,64.2,30.06,East,79,4.0,8.0,82,0.00,,,0.00,Wunderground v.1.15,2013-09-04 23:47:00,
2013-09-04 18:52:00,69.5,64.1,30.06,East,83,4.0,6.0,83,0.00,,,0.00,Wunderground v.1.15,2013-09-04 23:52:00,
2013-09-04 18:57:00,69.0,63.6,30.06,ENE,65,6.0,9.0,83,0.00,,,0.00,Wunderground v.1.15,2013-09-04 23:57:00,
2013-09-04 19:02:00,68.6,63.6,30.06,ENE,65,2.0,5.0,84,0.00,,,0.00,Wunderground v.1.15,2013-09-05 00:02:00,
2013-09-04 19:07:00,68.2,63.5,30.06,East,89,4.0,7.0,85,0.00,,,0.00,Wunderground v.1.15,2013-09-05 00:07:00,
2013-09-04 19:12:00,67.9,63.2,30.06,ENE,60,2.0,11.0,85,0.00,,,0.00,Wunderground v.1.15,2013-09-05 00:12:00,
2013-09-04 19:17:00,67.5,63.2,30.06,ENE,66,2.0,11.0,86,0.00,,,0.00,Wunderground v.1.15,2013-09-05 00:17:00,
2013-09-04 19:22:00,67.3,63.3,30.06,ENE,59,2.0,6.0,87,0.00,,,0.00,Wunderground v.1.15,2013-09-05 00:22:00,
2013-09-04 19:27:00,67.0,63.0,30.06,ENE,65,3.0,6.0,87,0.00,,,0.00,Wunderground v.1.15,2013-09-05 00:27:00,
2013-09-04 19:32:00,66.8,63.1,30.06,ENE,66,2.0,6.0,88,0.00,,,0.00,Wunderground v.1.15,2013-09-05 00:32:00,
2013-09-04 19:37:00,66.7,63.0,30.06,ENE,66,3.0,6.0,88,0.00,,,0.00,Wunderground v.1.15,2013-09-05 00:37:00,
2013-09-04 19:42:00,66.5,62.8,30.06,ENE,58,2.0,7.0,88,0.00,,,0.00,Wunderground v.1.15,2013-09-05 00:42:00,
2013-09-04 19:47:00,66.4,63.1,30.07,ENE,77,2.0,8.0,89,0.00,,,0.00,Wunderground v.1.15,2013-09-05 00:47:00,
2013-09-04 19:52:00,66.3,63.0,30.07,ENE,60,7.0,7.0,89,0.00,,,0.00,Wunderground v.1.15,2013-09-05 00:52:00,
2013-09-04 19:57:00,66.2,62.9,30.07,East,95,3.0,8.0,89,0.00,,,0.00,Wunderground v.1.15,2013-09-05 00:57:00,
2013-09-04 20:02:00,66.2,62.9,30.07,ENE,64,2.0,9.0,89,0.00,,,0.00,Wunderground v.1.15,2013-09-05 01:02:00,
2013-09-04 20:08:00,66.2,62.9,30.07,ENE,68,4.0,9.0,89,0.00,,,0.00,Wunderground v.1.15,2013-09-05 01:08:00,
2013-09-04 20:13:00,66.2,62.9,30.08,ENE,65,3.0,6.0,89,0.00,,,0.00,Wunderground v.1.15,2013-09-05 01:13:00,
2013-09-04 20:18:00,66.2,62.9,30.08,East,96,5.0,7.0,89,0.00,,,0.00,Wunderground v.1.15,2013-09-05 01:18:00,
2013-09-04 20:23:00,66.1,62.8,30.08,ENE,65,3.0,7.0,89,0.00,,,0.00,Wunderground v.1.15,2013-09-05 01:23:00,
2013-09-04 20:28:00,66.1,62.8,30.08,ENE,76,3.0,8.0,89,0.00,,,0.00,Wunderground v.1.15,2013-09-05 01:28:00,
2013-09-04 20:33:00,66.0,62.7,30.08,NE,46,4.0,6.0,89,0.00,,,0.00,Wunderground v.1.15,2013-09-05 01:33:00,
2013-09-04 20:38:00,66.0,62.7,30.08,NE,47,3.0,6.0,89,0.00,,,0.00,Wunderground v.1.15,2013-09-05 01:38:00,
2013-09-04 20:43:00,65.9,62.9,30.08,ENE,65,1.0,7.0,90,0.00,,,0.00,Wunderground v.1.15,2013-09-05 01:43:00,
2013-09-04 20:48:00,65.9,62.6,30.08,ENE,65,2.0,7.0,89,0.00,,,0.00,Wunderground v.1.15,2013-09-05 01:48:00,
2013-09-04 20:53:00,65.8,62.5,30.08,ENE,62,2.0,6.0,89,0.00,,,0.00,Wunderground v.1.15,2013-09-05 01:53:00,
2013-09-04 20:58:00,65.6,62.6,30.08,East,85,4.0,6.0,90,0.00,,,0.00,Wunderground v.1.15,2013-09-05 01:58:00,
2013-09-04 21:03:00,65.5,62.5,30.08,East,82,2.0,3.0,90,0.00,,,0.00,Wunderground v.1.15,2013-09-05 02:03:00,
2013-09-04 21:08:00,65.5,62.5,30.09,ENE,70,3.0,7.0,90,0.00,,,0.00,Wunderground v.1.15,2013-09-05 02:08:00,
2013-09-04 21:13:00,65.5,62.5,30.09,ENE,70,2.0,6.0,90,0.00,,,0.00,Wunderground v.1.15,2013-09-05 02:13:00,
2013-09-04 21:18:00,65.5,62.5,30.09,NNE,16,5.0,6.0,90,0.00,,,0.00,Wunderground v.1.15,2013-09-05 02:18:00,
2013-09-04 21:23:00,65.6,62.6,30.09,ESE,113,3.0,6.0,90,0.00,,,0.00,Wunderground v.1.15,2013-09-05 02:23:00,
2013-09-04 21:28:00,65.6,62.6,30.09,East,92,1.0,6.0,90,0.00,,,0.00,Wunderground v.1.15,2013-09-05 02:28:00,
2013-09-04 21:33:00,65.6,62.6,30.09,ENE,76,0.0,5.0,90,0.00,,,0.00,Wunderground v.1.15,2013-09-05 02:33:00,
2013-09-04 21:38:00,65.7,62.7,30.10,ENE,77,1.0,6.0,90,0.00,,,0.00,Wunderground v.1.15,2013-09-05 02:38:00,
2013-09-04 21:43:00,65.6,62.6,30.10,ENE,74,2.0,6.0,90,0.00,,,0.00,Wunderground v.1.15,2013-09-05 02:43:00,
2013-09-04 21:48:00,65.6,62.6,30.10,ENE,77,2.0,6.0,90,0.00,,,0.00,Wunderground v.1.15,2013-09-05 02:48:00,
2013-09-04 21:53:00,65.6,62.6,30.10,ENE,62,0.0,6.0,90,0.00,,,0.00,Wunderground v.1.15,2013-09-05 02:53:00,
2013-09-04 21:58:00,65.6,62.6,30.10,ENE,70,3.0,6.0,90,0.00,,,0.00,Wunderground v.1.15,2013-09-05 02:58:00,
2013-09-04 22:03:00,65.7,62.7,30.10,ENE,66,3.0,6.0,90,0.00,,,0.00,Wunderground v.1.15,2013-09-05 03:03:00,
2013-09-04 22:08:00,65.7,62.7,30.10,ENE,73,4.0,6.0,90,0.00,,,0.00,Wunderground v.1.15,2013-09-05 03:08:00,
2013-09-04 22:13:00,65.8,62.8,30.10,ENE,68,2.0,6.0,90,0.00,,,0.00,Wunderground v.1.15,2013-09-05 03:13:00,
2013-09-04 22:18:00,65.9,62.9,30.10,ESE,102,4.0,7.0,90,0.00,,,0.00,Wunderground v.1.15,2013-09-05 03:18:00,
2013-09-04 22:23:00,65.9,62.9,30.10,NE,46,7.0,8.0,90,0.00,,,0.00,Wunderground v.1.15,2013-09-05 03:23:00,
2013-09-04 22:28:00,65.9,62.9,30.10,East,89,5.0,8.0,90,0.00,,,0.00,Wunderground v.1.15,2013-09-05 03:28:00,
2013-09-04 22:33:00,65.8,62.8,30.10,ENE,68,4.0,7.0,90,0.00,,,0.00,Wunderground v.1.15,2013-09-05 03:33:00,
2013-09-04 22:38:00,65.8,62.8,30.10,ENE,63,2.0,8.0,90,0.00,,,0.00,Wunderground v.1.15,2013-09-05 03:38:00,
2013-09-04 22:43:00,65.8,62.8,30.10,ENE,70,2.0,4.0,90,0.00,,,0.00,Wunderground v.1.15,2013-09-05 03:43:00,
2013-09-04 22:48:00,65.8,62.8,30.11,ENE,68,2.0,7.0,90,0.00,,,0.00,Wunderground v.1.15,2013-09-05 03:48:00,
2013-09-04 22:53:00,65.8,62.8,30.11,ENE,65,3.0,6.0,90,0.00,,,0.00,Wunderground v.1.15,2013-09-05 03:53:00,
2013-09-04 22:58:00,65.8,62.8,30.11,ESE,104,1.0,6.0,90,0.00,,,0.00,Wunderground v.1.15,2013-09-05 03:58:00,
2013-09-04 23:01:00,65.7,62.7,30.11,ENE,72,2.0,6.0,90,0.00,,,0.00,Wunderground v.1.15,2013-09-05 04:01:00,
2013-09-04 23:02:00,65.7,62.7,30.10,ENE,70,2.0,6.0,90,0.00,,,0.00,Wunderground v.1.15,2013-09-05 04:02:00,
2013-09-04 23:07:00,65.7,62.7,30.11,ENE,63,3.0,7.0,90,0.00,,,0.00,Wunderground v.1.15,2013-09-05 04:07:00,
2013-09-04 23:12:00,65.7,62.4,30.11,ENE,60,5.0,9.0,89,0.00,,,0.00,Wunderground v.1.15,2013-09-05 04:12:00,
2013-09-04 23:17:00,65.6,62.3,30.11,NE,56,5.0,9.0,89,0.00,,,0.00,Wunderground v.1.15,2013-09-05 04:17:00,
2013-09-04 23:22:00,65.7,62.4,30.11,ENE,65,4.0,8.0,89,0.00,,,0.00,Wunderground v.1.15,2013-09-05 04:22:00,
2013-09-04 23:27:00,65.6,62.6,30.11,ENE,75,1.0,8.0,90,0.00,,,0.00,Wunderground v.1.15,2013-09-05 04:27:00,
2013-09-04 23:32:00,65.5,62.5,30.11,ENE,57,3.0,4.0,90,0.00,,,0.00,Wunderground v.1.15,2013-09-05 04:32:00,
2013-09-04 23:37:00,65.5,62.5,30.11,ENE,70,1.0,4.0,90,0.00,,,0.00,Wunderground v.1.15,2013-09-05 04:37:00,
2013-09-04 23:42:00,65.4,62.4,30.11,ESE,105,1.0,3.0,90,0.00,,,0.00,Wunderground v.1.15,2013-09-05 04:42:00,
2013-09-04 23:47:00,65.3,62.3,30.11,ESE,115,2.0,3.0,90,0.00,,,0.00,Wunderground v.1.15,2013-09-05 04:47:00,
2013-09-04 23:52:00,65.3,62.0,30.11,ENE,62,2.0,4.0,89,0.00,,,0.00,Wunderground v.1.15,2013-09-05 04:52:00,
2013-09-04 23:57:00,65.2,61.9,30.11,ENE,66,3.0,7.0,89,0.00,,,0.00,Wunderground v.1.15,2013-09-05 04:57:00,